createdAt,value
2022-12-08T00:01:34.482Z,99917.09
2022-12-08T00:04:03.055Z,99914.59
2022-12-08T00:06:49.903Z,99916.75
2022-12-08T00:09:39.338Z,99903.00
2022-12-08T00:12:12.306Z,99898.28
2022-12-08T00:14:51.420Z,99893.31
2022-12-08T00:17:18.096Z,99898.34
2022-12-08T00:19:45.098Z,99897.28
2022-12-08T00:22:15.532Z,99880.94
2022-12-08T00:24:45.537Z,99895.31
2022-12-08T00:27:14.431Z,99886.00
2022-12-08T00:29:45.616Z,99884.63
2022-12-08T00:32:12.864Z,99885.94
2022-12-08T00:34:39.531Z,99883.09
2022-12-08T00:37:06.525Z,99876.06
2022-12-08T00:39:33.235Z,99880.69
2022-12-08T00:42:26.106Z,99875.78
2022-12-08T00:44:52.743Z,99887.25
2022-12-08T00:47:24.510Z,99887.69
2022-12-08T00:49:52.072Z,99879.03
2022-12-08T00:52:18.731Z,99880.91
2022-12-08T00:54:45.499Z,99873.88
2022-12-08T00:57:12.112Z,99868.38
2022-12-08T00:59:38.872Z,99864.72
2022-12-08T01:02:05.974Z,99861.16
2022-12-08T01:04:32.667Z,99861.75
2022-12-08T01:06:59.259Z,99854.31
2022-12-08T01:09:25.921Z,99858.09
2022-12-08T01:11:52.528Z,99854.22
2022-12-08T01:14:22.431Z,99854.72
2022-12-08T01:19:32.543Z,99853.72
2022-12-08T01:22:01.416Z,99851.97
2022-12-08T01:24:30.229Z,99838.88
2022-12-08T01:26:56.837Z,99851.97
2022-12-08T01:29:29.827Z,99846.25
2022-12-08T01:31:56.464Z,99845.09
2022-12-08T01:34:25.438Z,99850.16
2022-12-08T01:36:52.102Z,99850.25
2022-12-08T01:39:19.586Z,99845.13
2022-12-08T01:41:47.815Z,99845.34
2022-12-08T01:44:14.332Z,99843.22
2022-12-08T01:46:47.387Z,99846.56
2022-12-08T01:49:34.167Z,99844.56
2022-12-08T01:52:14.246Z,99838.38
2022-12-08T01:54:53.842Z,99848.69
2022-12-08T01:57:28.504Z,99832.31
2022-12-08T02:00:02.807Z,99836.13
2022-12-08T02:02:40.291Z,99831.03
2022-12-08T02:05:07.595Z,99839.72
2022-12-08T02:07:35.586Z,99828.66
2022-12-08T02:10:06.440Z,99821.25
2022-12-08T02:12:33.567Z,99811.69
2022-12-08T02:15:04.708Z,99814.50
2022-12-08T02:18:01.459Z,99822.31
2022-12-08T02:21:00.648Z,99809.91
2022-12-08T02:23:37.245Z,99804.56
2022-12-08T02:26:18.684Z,99812.44
2022-12-08T02:29:06.329Z,99815.00
2022-12-08T02:32:12.569Z,99809.72
2022-12-08T02:34:55.085Z,99808.13
2022-12-08T02:37:42.951Z,99800.56
2022-12-08T02:40:22.044Z,99799.59
2022-12-08T02:43:01.512Z,99801.66
2022-12-08T02:45:35.063Z,99805.78
2022-12-08T02:48:01.911Z,99801.81
2022-12-08T02:50:31.058Z,99803.59
2022-12-08T02:52:57.770Z,99793.59
2022-12-08T02:56:06.910Z,99788.97
2022-12-08T02:59:14.243Z,99789.09
2022-12-08T03:02:13.875Z,99776.81
2022-12-08T03:04:50.448Z,99783.38
2022-12-08T03:07:30.067Z,99777.44
2022-12-08T03:10:06.136Z,99782.66
2022-12-08T03:12:59.051Z,99780.50
2022-12-08T03:15:25.806Z,99779.03
2022-12-08T03:17:58.839Z,99775.34
2022-12-08T03:20:30.131Z,99766.66
2022-12-08T03:22:59.368Z,99776.81
2022-12-08T03:25:30.324Z,99766.13
2022-12-08T03:27:57.088Z,99758.16
2022-12-08T03:30:30.689Z,99768.34
2022-12-08T03:33:07.304Z,99759.00
2022-12-08T03:35:37.277Z,99759.94
2022-12-08T03:38:10.764Z,99765.22
2022-12-08T03:40:40.948Z,99762.84
2022-12-08T03:43:08.087Z,99756.56
2022-12-08T03:45:34.789Z,99754.59
2022-12-08T03:48:02.496Z,99749.56
2022-12-08T03:50:29.086Z,99750.72
2022-12-08T03:52:55.743Z,99750.00
2022-12-08T03:55:22.347Z,99755.06
2022-12-08T03:57:54.205Z,99738.84
2022-12-08T04:00:21.029Z,99742.59
2022-12-08T04:02:50.764Z,99743.97
2022-12-08T04:05:17.404Z,99737.38
2022-12-08T04:07:46.269Z,99738.66
2022-12-08T04:10:13.298Z,99744.47
2022-12-08T04:12:39.936Z,99725.38
2022-12-08T04:15:07.155Z,99725.44
2022-12-08T04:17:33.713Z,99732.56
2022-12-08T04:20:03.925Z,99715.88
2022-12-08T04:22:30.833Z,99718.53
2022-12-08T04:24:57.723Z,99721.31
2022-12-08T04:27:24.339Z,99715.44
2022-12-08T04:29:50.938Z,99711.06
2022-12-08T04:32:17.549Z,99710.28
2022-12-08T04:34:44.121Z,99718.88
2022-12-08T04:37:10.775Z,99710.03
2022-12-08T04:39:37.372Z,99710.47
2022-12-08T04:42:04.086Z,99708.38
2022-12-08T04:44:30.744Z,99712.50
2022-12-08T04:46:59.878Z,99709.94
2022-12-08T04:49:26.488Z,99703.06
2022-12-08T04:52:00.460Z,99711.75
2022-12-08T04:54:27.130Z,99711.72
2022-12-08T04:56:53.843Z,99697.19
2022-12-08T04:59:20.507Z,99706.19
2022-12-08T05:01:47.198Z,99704.91
2022-12-08T05:04:14.456Z,99695.06
2022-12-08T05:06:41.025Z,99700.03
2022-12-08T05:09:07.818Z,99693.31
2022-12-08T05:11:34.404Z,99688.75
2022-12-08T05:14:26.091Z,99694.53
2022-12-08T05:16:52.811Z,99682.41
2022-12-08T05:19:19.458Z,99685.69
2022-12-08T05:21:46.923Z,99685.50
2022-12-08T05:24:13.587Z,99685.63
2022-12-08T05:26:40.192Z,99681.94
2022-12-08T05:29:06.843Z,99680.59
2022-12-08T05:31:35.667Z,99678.94
2022-12-08T05:34:03.430Z,99684.25
2022-12-08T05:36:30.744Z,99680.75
2022-12-08T05:38:58.653Z,99675.66
2022-12-08T05:41:25.392Z,99677.16
2022-12-08T05:43:52.022Z,99690.38
2022-12-08T05:46:18.851Z,99675.44
2022-12-08T05:48:45.587Z,99675.56
2022-12-08T05:51:32.388Z,99666.47
2022-12-08T05:53:59.159Z,99680.41
2022-12-08T05:56:25.758Z,99666.84
2022-12-08T05:58:52.483Z,99668.44
2022-12-08T06:01:25.261Z,99666.19
2022-12-08T06:03:52.572Z,99657.88
2022-12-08T06:06:19.273Z,99654.72
2022-12-08T06:08:46.149Z,99659.41
2022-12-08T06:11:24.604Z,99658.03
2022-12-08T06:13:51.787Z,99659.94
2022-12-08T06:16:19.583Z,99661.84
2022-12-08T06:18:46.598Z,99661.72
2022-12-08T06:21:15.572Z,99657.69
2022-12-08T06:23:42.619Z,99656.16
2022-12-08T06:26:12.604Z,99661.72
2022-12-08T06:28:39.866Z,99669.34
2022-12-08T06:31:26.737Z,99666.09
2022-12-08T06:33:54.550Z,99661.91
2022-12-08T06:36:22.554Z,99666.47
2022-12-08T06:38:49.419Z,99662.31
2022-12-08T06:41:16.751Z,99664.94
2022-12-08T06:43:43.972Z,99663.84
2022-12-08T06:46:14.470Z,99654.44
2022-12-08T06:48:41.551Z,99659.66
2022-12-08T06:51:33.861Z,99662.13
2022-12-08T06:54:01.415Z,99655.66
2022-12-08T06:56:28.163Z,99658.25
2022-12-08T06:58:56.279Z,99667.56
2022-12-08T07:01:23.002Z,99668.44
2022-12-08T07:03:49.970Z,99654.69
2022-12-08T07:06:20.698Z,99669.78
2022-12-08T07:08:47.354Z,99669.16
2022-12-08T07:11:20.943Z,99664.44
2022-12-08T07:13:48.493Z,99664.44
2022-12-08T07:16:15.210Z,99662.91
2022-12-08T07:19:06.632Z,99665.91
2022-12-08T07:21:33.230Z,99667.31
2022-12-08T07:23:59.926Z,99658.53
2022-12-08T07:26:27.134Z,99666.59
2022-12-08T07:28:53.967Z,99664.38
2022-12-08T07:31:23.769Z,99677.38
2022-12-08T07:33:50.927Z,99676.34
2022-12-08T07:36:18.153Z,99666.75
2022-12-08T07:38:44.794Z,99672.56
2022-12-08T07:41:16.426Z,99674.75
2022-12-08T07:43:43.308Z,99670.28
2022-12-08T07:46:18.486Z,99676.69
2022-12-08T07:48:46.230Z,99667.97
2022-12-08T07:51:13.927Z,99662.59
2022-12-08T07:53:43.868Z,99664.13
2022-12-08T07:56:13.741Z,99668.25
2022-12-08T07:58:41.598Z,99676.09
2022-12-08T08:01:20.161Z,99676.63
2022-12-08T08:03:48.955Z,99680.09
2022-12-08T08:06:15.914Z,99676.41
2022-12-08T08:08:45.695Z,99675.28
2022-12-08T08:11:17.397Z,99690.22
2022-12-08T08:13:47.971Z,99686.88
2022-12-08T08:16:20.890Z,99684.03
2022-12-08T08:18:50.441Z,99692.06
2022-12-08T08:24:06.476Z,99693.91
2022-12-08T08:26:33.037Z,99697.47
2022-12-08T08:29:01.809Z,99692.00
2022-12-08T08:31:28.528Z,99699.25
2022-12-08T08:33:57.503Z,99690.09
2022-12-08T08:36:24.087Z,99692.28
2022-12-08T08:38:52.374Z,99693.78
2022-12-08T08:41:21.290Z,99696.41
2022-12-08T08:43:47.895Z,99695.63
2022-12-08T08:46:16.987Z,99701.88
2022-12-08T08:48:43.658Z,99703.34
2022-12-08T08:51:13.291Z,99699.34
2022-12-08T08:53:40.490Z,99712.06
2022-12-08T08:56:15.938Z,99703.22
2022-12-08T08:58:42.603Z,99709.78
2022-12-08T09:01:09.301Z,99707.06
2022-12-08T09:03:35.966Z,99714.41
2022-12-08T09:06:04.899Z,99711.09
2022-12-08T09:08:31.735Z,99715.44
2022-12-08T09:10:58.330Z,99709.38
2022-12-08T09:13:25.032Z,99706.38
2022-12-08T09:15:51.800Z,99702.84
2022-12-08T09:18:18.590Z,99704.41
2022-12-08T09:20:47.639Z,99702.50
2022-12-08T09:23:17.352Z,99701.34
2022-12-08T09:25:54.275Z,99701.47
2022-12-08T09:28:20.893Z,99703.84
2022-12-08T09:30:47.545Z,99702.34
2022-12-08T09:33:14.175Z,99705.72
2022-12-08T09:35:41.696Z,99707.31
2022-12-08T09:38:08.366Z,99706.69
2022-12-08T09:40:50.510Z,99703.56
2022-12-08T09:43:41.927Z,99708.56
2022-12-08T09:46:17.454Z,99712.13
2022-12-08T09:49:00.532Z,99707.53
2022-12-08T09:51:34.477Z,99702.47
2022-12-08T09:54:13.050Z,99702.50
2022-12-08T09:56:40.076Z,99705.78
2022-12-08T09:59:26.185Z,99699.97
2022-12-08T10:01:54.957Z,99701.63
2022-12-08T10:04:35.340Z,99705.59
2022-12-08T10:07:17.240Z,99697.50
2022-12-08T10:10:05.979Z,99693.91
2022-12-08T10:13:02.145Z,99696.47
2022-12-08T10:15:28.860Z,99695.84
2022-12-08T10:17:57.783Z,99694.16
2022-12-08T10:20:28.672Z,99696.59
2022-12-08T10:23:23.143Z,99693.16
2022-12-08T10:25:54.426Z,99690.00
2022-12-08T10:28:21.074Z,99688.66
2022-12-08T10:30:47.625Z,99698.97
2022-12-08T10:33:20.641Z,99687.81
2022-12-08T10:35:50.405Z,99687.22
2022-12-08T10:38:22.972Z,99684.47
2022-12-08T10:40:52.188Z,99683.09
2022-12-08T10:43:25.612Z,99678.00
2022-12-08T10:45:52.787Z,99680.53
2022-12-08T10:48:23.113Z,99674.88
2022-12-08T10:50:57.545Z,99681.75
2022-12-08T10:53:26.854Z,99675.31
2022-12-08T10:56:06.867Z,99670.78
2022-12-08T10:58:41.117Z,99660.88
2022-12-08T11:01:21.232Z,99653.31
2022-12-08T11:03:53.208Z,99657.06
2022-12-08T11:06:23.761Z,99671.09
2022-12-08T11:08:56.022Z,99670.41
2022-12-08T11:11:37.892Z,99661.31
2022-12-08T11:14:09.144Z,99661.66
2022-12-08T11:16:36.036Z,99657.13
2022-12-08T11:19:07.958Z,99655.94
2022-12-08T11:21:37.318Z,99659.56
2022-12-08T11:24:25.088Z,99660.50
2022-12-08T11:26:59.295Z,99660.19
2022-12-08T11:29:33.852Z,99665.22
2022-12-08T11:35:15.047Z,99661.09
2022-12-08T11:37:43.829Z,99661.56
2022-12-08T11:40:23.510Z,99658.38
2022-12-08T11:42:59.456Z,99657.66
2022-12-08T11:45:30.376Z,99661.47
2022-12-08T11:48:26.770Z,99663.22
2022-12-08T11:51:05.218Z,99661.81
2022-12-08T11:53:44.264Z,99653.81
2022-12-08T11:56:19.634Z,99657.53
2022-12-08T11:58:52.028Z,99657.06
2022-12-08T12:01:21.942Z,99661.25
2022-12-08T12:04:11.463Z,99657.19
2022-12-08T12:07:00.289Z,99656.78
2022-12-08T12:09:32.675Z,99656.69
2022-12-08T12:12:21.343Z,99666.81
2022-12-08T12:15:15.845Z,99663.34
2022-12-08T12:17:53.013Z,99649.72
2022-12-08T12:20:31.786Z,99655.75
2022-12-08T12:23:16.198Z,99645.09
2022-12-08T12:26:38.290Z,99647.38
2022-12-08T12:29:18.210Z,99649.69
2022-12-08T12:31:52.545Z,99648.75
2022-12-08T12:34:56.966Z,99652.75
2022-12-08T12:37:40.005Z,99661.34
2022-12-08T12:40:17.708Z,99651.47
2022-12-08T12:42:59.075Z,99654.06
2022-12-08T12:45:33.545Z,99649.25
2022-12-08T12:48:00.230Z,99649.50
2022-12-08T12:50:43.592Z,99652.66
2022-12-08T12:53:16.505Z,99657.44
2022-12-08T12:55:46.099Z,99659.00
2022-12-08T12:58:30.059Z,99648.34
2022-12-08T13:01:13.234Z,99658.38
2022-12-08T13:03:47.459Z,99660.00
2022-12-08T13:06:35.458Z,99654.38
2022-12-08T13:09:02.198Z,99656.69
2022-12-08T13:11:28.872Z,99653.31
2022-12-08T13:14:01.411Z,99658.53
2022-12-08T13:16:32.373Z,99665.22
2022-12-08T13:19:03.922Z,99658.78
2022-12-08T13:21:37.009Z,99662.09
2022-12-08T13:24:26.761Z,99658.91
2022-12-08T13:27:05.710Z,99660.00
2022-12-08T13:29:34.069Z,99662.50
2022-12-08T13:32:02.423Z,99663.13
2022-12-08T13:34:35.113Z,99659.28
2022-12-08T13:37:10.957Z,99654.41
2022-12-08T13:39:40.406Z,99669.38
2022-12-08T13:42:29.463Z,99661.81
2022-12-08T13:45:21.777Z,99666.00
2022-12-08T13:48:30.152Z,99658.47
2022-12-08T13:53:22.423Z,99667.03
2022-12-08T13:57:11.501Z,99681.38
2022-12-08T13:59:44.365Z,99672.47
2022-12-08T14:02:39.705Z,99680.63
2022-12-08T14:05:19.397Z,99679.38
2022-12-08T14:07:51.888Z,99675.69
2022-12-08T14:10:34.050Z,99685.69
2022-12-08T14:13:07.321Z,99688.22
2022-12-08T14:15:38.413Z,99693.25
2022-12-08T14:18:21.501Z,99701.00
2022-12-08T14:21:20.325Z,99701.72
2022-12-08T14:23:47.581Z,99703.75
2022-12-08T14:26:14.164Z,99706.03
2022-12-08T14:28:44.756Z,99703.47
2022-12-08T14:31:14.571Z,99710.63
2022-12-08T14:33:41.678Z,99711.50
2022-12-08T14:36:09.883Z,99707.41
2022-12-08T14:38:36.681Z,99705.06
2022-12-08T14:41:06.572Z,99706.03
2022-12-08T14:43:33.741Z,99709.53
2022-12-08T14:46:03.190Z,99710.94
2022-12-08T14:48:38.648Z,99710.81
2022-12-08T14:51:14.154Z,99710.00
2022-12-08T14:53:58.581Z,99705.84
2022-12-08T14:56:52.230Z,99707.25
2022-12-08T14:59:43.080Z,99720.09
2022-12-08T15:02:15.624Z,99711.81
2022-12-08T15:04:45.887Z,99722.56
2022-12-08T15:07:24.526Z,99725.19
2022-12-08T15:10:24.560Z,99730.28
2022-12-08T15:13:09.541Z,99721.75
2022-12-08T15:16:27.200Z,99728.97
2022-12-08T15:19:16.959Z,99730.25
2022-12-08T15:21:45.904Z,99727.41
2022-12-08T15:24:13.970Z,99736.78
2022-12-08T15:26:51.031Z,99736.47
2022-12-08T15:29:27.066Z,99736.06
2022-12-08T15:31:59.397Z,99737.84
2022-12-08T15:34:26.308Z,99741.16
2022-12-08T15:36:54.720Z,99733.50
2022-12-08T15:39:28.276Z,99732.38
2022-12-08T15:41:54.908Z,99734.41
2022-12-08T15:44:21.508Z,99745.31
2022-12-08T15:46:50.071Z,99742.84
2022-12-08T15:49:19.775Z,99743.56
2022-12-08T15:51:47.303Z,99747.13
2022-12-08T15:54:14.547Z,99752.75
2022-12-08T15:57:18.505Z,99751.69
2022-12-08T15:59:41.822Z,99758.41
2022-12-08T16:02:12.618Z,99766.47
2022-12-08T16:07:32.951Z,99756.91
2022-12-08T16:09:59.755Z,99762.72
2022-12-08T16:13:48.105Z,99766.25
2022-12-08T16:15:51.650Z,99770.25
2022-12-08T16:18:28.043Z,99769.63
2022-12-08T16:21:23.840Z,99765.03
2022-12-08T16:23:44.296Z,99762.91
2022-12-08T16:29:20.349Z,99763.44
2022-12-08T16:31:47.253Z,99765.09
2022-12-08T16:34:16.522Z,99771.91
2022-12-08T16:36:43.152Z,99770.69
2022-12-08T16:39:12.989Z,99766.41
2022-12-08T16:41:58.390Z,99772.53
2022-12-08T16:44:25.088Z,99768.78
2022-12-08T16:46:51.714Z,99768.56
2022-12-08T16:49:18.423Z,99770.72
2022-12-08T16:51:45.062Z,99773.06
2022-12-08T16:54:12.052Z,99772.88
2022-12-08T16:56:38.711Z,99769.63
2022-12-08T16:59:05.446Z,99772.25
2022-12-08T17:01:32.224Z,99772.63
2022-12-08T17:04:31.152Z,99779.69
2022-12-08T17:06:49.196Z,99777.41
2022-12-08T17:09:15.810Z,99784.56
2022-12-08T17:11:43.755Z,99783.41
2022-12-08T17:14:12.454Z,99776.34
2022-12-08T17:16:42.001Z,99782.19
2022-12-08T17:19:09.142Z,99780.75
2022-12-08T17:21:37.815Z,99778.44
2022-12-08T17:24:06.196Z,99773.09
2022-12-08T17:26:33.044Z,99776.16
2022-12-08T17:29:04.733Z,99778.25
2022-12-08T17:31:34.757Z,99772.88
2022-12-08T17:34:10.622Z,99773.91
2022-12-08T17:36:37.436Z,99776.00
2022-12-08T17:39:05.496Z,99781.66
2022-12-08T17:41:32.233Z,99780.72
2022-12-08T17:43:58.799Z,99774.97
2022-12-08T17:46:25.997Z,99776.91
2022-12-08T17:48:54.990Z,99782.09
2022-12-08T17:51:21.715Z,99782.63
2022-12-08T17:53:48.345Z,99779.94
2022-12-08T17:56:21.519Z,99777.41
2022-12-08T17:58:54.218Z,99787.50
2022-12-08T18:01:21.376Z,99788.13
2022-12-08T18:03:48.083Z,99781.59
2022-12-08T18:06:16.930Z,99782.72
2022-12-08T18:08:43.804Z,99790.41
2022-12-08T18:11:20.158Z,99775.25
2022-12-08T18:13:48.743Z,99789.28
2022-12-08T18:16:18.891Z,99788.06
2022-12-08T18:18:47.660Z,99782.00
2022-12-08T18:21:21.452Z,99787.84
2022-12-08T18:23:50.986Z,99795.44
2022-12-08T18:26:17.669Z,99786.75
2022-12-08T18:28:44.347Z,99790.34
2022-12-08T18:31:16.985Z,99795.31
2022-12-08T18:33:44.882Z,99797.44
2022-12-08T18:36:16.972Z,99793.00
2022-12-08T18:38:44.271Z,99798.00
2022-12-08T18:41:14.836Z,99794.91
2022-12-08T18:43:42.972Z,99789.53
2022-12-08T18:46:12.014Z,99799.06
2022-12-08T18:48:47.722Z,99791.81
2022-12-08T18:51:21.968Z,99791.59
2022-12-08T18:53:49.169Z,99791.84
2022-12-08T18:56:28.100Z,99793.31
2022-12-08T18:59:02.604Z,99799.75
2022-12-08T19:01:32.435Z,99804.34
2022-12-08T19:06:47.261Z,99803.72
2022-12-08T19:09:14.217Z,99796.97
2022-12-08T19:14:27.808Z,99797.84
2022-12-08T19:16:54.985Z,99811.50
2022-12-08T19:19:23.742Z,99811.53
2022-12-08T19:21:50.583Z,99800.84
2022-12-08T19:24:19.986Z,99798.81
2022-12-08T19:26:46.602Z,99805.06
2022-12-08T19:29:13.567Z,99813.91
2022-12-08T19:31:41.076Z,99822.47
2022-12-08T19:34:09.278Z,99809.75
2022-12-08T19:36:42.182Z,99823.91
2022-12-08T19:39:42.194Z,99812.72
2022-12-08T19:42:37.581Z,99816.84
2022-12-08T19:45:17.215Z,99822.44
2022-12-08T19:47:44.218Z,99824.22
2022-12-08T19:50:31.613Z,99824.09
2022-12-08T19:52:58.495Z,99825.19
2022-12-08T19:55:26.076Z,99821.63
2022-12-08T19:57:55.433Z,99818.56
2022-12-08T20:00:22.144Z,99828.13
2022-12-08T20:02:49.271Z,99812.53
2022-12-08T20:05:15.964Z,99822.88
2022-12-08T20:07:43.280Z,99827.97
2022-12-08T20:10:16.352Z,99823.81
2022-12-08T20:12:43.182Z,99830.97
2022-12-08T20:15:10.554Z,99826.00
2022-12-08T20:17:38.474Z,99836.25
2022-12-08T20:20:07.647Z,99836.41
2022-12-08T20:22:35.193Z,99843.38
2022-12-08T20:25:02.400Z,99843.28
2022-12-08T20:27:29.327Z,99850.44
2022-12-08T20:29:56.059Z,99850.34
2022-12-08T20:32:25.788Z,99844.09
2022-12-08T20:34:53.897Z,99850.06
2022-12-08T20:37:20.513Z,99851.91
2022-12-08T20:39:47.144Z,99855.19
2022-12-08T20:42:16.515Z,99853.09
2022-12-08T20:44:44.611Z,99859.28
2022-12-08T20:47:12.595Z,99855.84
2022-12-08T20:49:39.439Z,99860.25
2022-12-08T20:52:06.711Z,99855.00
2022-12-08T20:54:33.727Z,99841.06
2022-12-08T20:57:01.076Z,99855.53
2022-12-08T20:59:27.789Z,99851.16
2022-12-08T21:01:54.997Z,99849.38
2022-12-08T21:04:23.277Z,99849.22
2022-12-08T21:06:50.305Z,99849.09
2022-12-08T21:09:17.151Z,99851.78
2022-12-08T21:11:43.948Z,99849.19
2022-12-08T21:14:11.163Z,99847.78
2022-12-08T21:16:38.771Z,99851.09
2022-12-08T21:19:06.320Z,99857.94
2022-12-08T21:21:33.272Z,99859.38
2022-12-08T21:24:00.060Z,99854.00
2022-12-08T21:26:26.978Z,99863.47
2022-12-08T21:28:58.534Z,99861.69
2022-12-08T21:31:31.989Z,99869.53
2022-12-08T21:34:03.487Z,99867.06
2022-12-08T21:36:31.392Z,99868.06
2022-12-08T21:39:00.766Z,99869.06
2022-12-08T21:41:47.697Z,99874.94
2022-12-08T21:44:18.720Z,99863.63
2022-12-08T21:46:45.978Z,99856.19
2022-12-08T21:49:12.707Z,99863.25
2022-12-08T21:51:42.299Z,99868.75
2022-12-08T21:54:18.604Z,99869.88
2022-12-08T21:56:48.677Z,99865.44
2022-12-08T21:59:16.096Z,99858.63
2022-12-08T22:01:45.972Z,99872.50
2022-12-08T22:04:17.536Z,99858.47
2022-12-08T22:06:44.263Z,99862.03
2022-12-08T22:09:15.277Z,99856.03
2022-12-08T22:11:45.317Z,99864.56
2022-12-08T22:14:15.511Z,99865.44
2022-12-08T22:16:43.184Z,99862.13
2022-12-08T22:19:10.200Z,99859.47
2022-12-08T22:21:38.216Z,99865.47
2022-12-08T22:24:05.329Z,99861.22
2022-12-08T22:26:32.240Z,99863.72
2022-12-08T22:28:58.813Z,99849.13
2022-12-08T22:31:26.261Z,99858.59
2022-12-08T22:33:55.337Z,99858.81
2022-12-08T22:36:24.523Z,99866.72
2022-12-08T22:38:52.858Z,99865.09
2022-12-08T22:41:19.821Z,99859.66
2022-12-08T22:43:50.261Z,99860.63
2022-12-08T22:46:19.891Z,99860.72
2022-12-08T22:48:47.141Z,99865.84
2022-12-08T22:51:14.222Z,99862.38
2022-12-08T22:53:41.483Z,99861.38
2022-12-08T22:56:10.469Z,99858.84
2022-12-08T22:58:38.612Z,99860.00
2022-12-08T23:01:05.912Z,99866.88
2022-12-08T23:03:33.287Z,99864.22
2022-12-08T23:06:00.274Z,99864.06
2022-12-08T23:08:27.176Z,99859.84
2022-12-08T23:10:54.424Z,99866.84
2022-12-08T23:13:22.006Z,99858.41
2022-12-08T23:15:50.015Z,99864.53
2022-12-08T23:18:19.236Z,99866.22
2022-12-08T23:20:48.250Z,99867.16
2022-12-08T23:23:17.916Z,99860.97
2022-12-08T23:25:46.485Z,99859.25
2022-12-08T23:28:13.484Z,99857.53
2022-12-08T23:30:43.212Z,99857.66
2022-12-08T23:33:10.650Z,99856.69
2022-12-08T23:35:37.515Z,99860.88
2022-12-08T23:38:04.683Z,99861.88
2022-12-08T23:40:33.685Z,99867.88
2022-12-08T23:43:00.335Z,99869.81
2022-12-08T23:45:27.051Z,99869.88
2022-12-08T23:47:53.714Z,99869.84
2022-12-08T23:50:20.267Z,99860.28
2022-12-08T23:52:46.907Z,99860.28
2022-12-08T23:55:13.581Z,99864.56
2022-12-08T23:57:40.241Z,99869.81
